Time;durP1;ratioP1;P1;durP2;ratioP2;P2;SDS_P1;SDS_P2;PMS_P1;PMS_P2;Temp;Humidity;BMP_temperature;BMP_pressure;BME280_temperature;BME280_humidity;BME280_pressure;Samples;Min_cycle;Max_cycle;Signal;HPM_P1;HPM_P2
2023/06/13 00:02:03;;;;;;;6.95;4.50;;;;;;;;;;5052176;28;42664;-22
2023/06/13 00:04:31;;;;;;;7.47;4.65;;;;;;;;;;5054820;28;44073;-23
2023/06/13 00:06:59;;;;;;;4.68;4.22;;;;;;;;;;5056966;28;40225;-23
2023/06/13 00:09:28;;;;;;;5.28;4.30;;;;;;;;;;5057597;28;43638;-23
2023/06/13 00:11:56;;;;;;;6.00;4.80;;;;;;;;;;5056968;28;43920;-23
2023/06/13 00:14:24;;;;;;;5.70;4.63;;;;;;;;;;5056958;28;41664;-22
2023/06/13 00:16:54;;;;;;;4.50;4.07;;;;;;;;;;5045148;28;42784;-24
2023/06/13 00:19:23;;;;;;;5.30;4.30;;;;;;;;;;5055051;28;43957;-22
2023/06/13 00:21:52;;;;;;;5.75;4.22;;;;;;;;;;5055454;28;42272;-23
2023/06/13 00:24:20;;;;;;;5.07;4.55;;;;;;;;;;5054636;28;44068;-23
2023/06/13 00:26:48;;;;;;;4.60;4.20;;;;;;;;;;5052737;28;40280;-23
2023/06/13 00:29:16;;;;;;;5.93;4.00;;;;;;;;;;5063006;28;42191;-23
2023/06/13 00:31:44;;;;;;;4.68;4.25;;;;;;;;;;5054177;28;43017;-23
2023/06/13 00:34:13;;;;;;;5.78;4.72;;;;;;;;;;5034379;28;39664;-28
2023/06/13 00:36:44;;;;;;;5.60;4.38;;;;;;;;;;5030739;28;41366;-23
2023/06/13 00:39:12;;;;;;;5.85;4.43;;;;;;;;;;5045730;28;43292;-23
2023/06/13 00:41:41;;;;;;;5.45;4.50;;;;;;;;;;5055174;28;40490;-23
2023/06/13 00:44:09;;;;;;;4.70;4.30;;;;;;;;;;5052821;28;43491;-23
2023/06/13 00:46:38;;;;;;;5.18;4.68;;;;;;;;;;5052719;28;41524;-23
2023/06/13 00:49:06;;;;;;;7.85;4.50;;;;;;;;;;5047079;28;43739;-23
2023/06/13 00:51:36;;;;;;;4.60;4.20;;;;;;;;;;5056750;28;44461;-23
2023/06/13 00:54:06;;;;;;;4.72;4.30;;;;;;;;;;5055569;28;39924;-24
2023/06/13 00:56:36;;;;;;;4.93;4.43;;;;;;;;;;5065777;28;42584;-23
2023/06/13 00:59:04;;;;;;;5.20;4.30;;;;;;;;;;5047128;28;43398;-23
2023/06/13 01:01:32;;;;;;;4.60;4.20;;;;;;;;;;5034601;28;39820;-23
2023/06/13 01:04:00;;;;;;;5.45;4.80;;;;;;;;;;5039751;28;42019;-23
2023/06/13 01:06:30;;;;;;;5.03;4.43;;;;;;;;;;5033967;28;39267;-23
2023/06/13 01:09:02;;;;;;;4.68;4.28;;;;;;;;;;5057325;28;42933;-23
2023/06/13 01:11:32;;;;;;;7.35;4.70;;;;;;;;;;5049446;28;43427;-23
2023/06/13 01:14:01;;;;;;;4.53;4.07;;;;;;;;;;5052776;28;40172;-23
2023/06/13 01:16:33;;;;;;;5.22;4.45;;;;;;;;;;5050291;28;44215;-23
2023/06/13 01:19:02;;;;;;;4.50;4.10;;;;;;;;;;5052051;28;44373;-21
2023/06/13 01:21:30;;;;;;;4.75;4.07;;;;;;;;;;5059304;28;41258;-23
2023/06/13 01:24:02;;;;;;;6.05;4.45;;;;;;;;;;5055878;28;43682;-23
2023/06/13 01:26:44;;;;;;;4.65;4.13;;;;;;;;;;5041753;28;31761;-23
2023/06/13 01:29:15;;;;;;;5.00;4.50;;;;;;;;;;5045966;28;41519;-25
2023/06/13 01:31:43;;;;;;;4.63;4.18;;;;;;;;;;5058122;28;43243;-23
2023/06/13 01:34:12;;;;;;;6.25;3.80;;;;;;;;;;5054760;28;40708;-23
2023/06/13 01:36:40;;;;;;;5.10;4.60;;;;;;;;;;5060640;28;43415;-23
2023/06/13 01:39:08;;;;;;;5.38;4.53;;;;;;;;;;5063668;28;44020;-23
2023/06/13 01:41:36;;;;;;;4.65;4.18;;;;;;;;;;5061584;28;41268;-23
2023/06/13 01:44:06;;;;;;;4.72;4.32;;;;;;;;;;5032919;28;40927;-24
2023/06/13 01:46:39;;;;;;;4.78;4.38;;;;;;;;;;5050761;28;43453;-23
2023/06/13 01:49:09;;;;;;;5.63;4.50;;;;;;;;;;5045906;28;43860;-23
2023/06/13 01:51:38;;;;;;;4.85;4.40;;;;;;;;;;5055166;28;44399;-24
2023/06/13 01:54:07;;;;;;;5.18;4.47;;;;;;;;;;5044633;28;40702;-23
2023/06/13 01:56:35;;;;;;;5.43;4.45;;;;;;;;;;5051830;28;43417;-23
2023/06/13 01:59:04;;;;;;;5.07;4.18;;;;;;;;;;5034705;28;42614;-23
2023/06/13 02:01:34;;;;;;;6.18;4.10;;;;;;;;;;5057834;28;41087;-23
2023/06/13 02:04:02;;;;;;;5.32;4.70;;;;;;;;;;5055076;28;42556;-23
2023/06/13 02:06:32;;;;;;;5.35;4.60;;;;;;;;;;5062923;28;43436;-23
2023/06/13 02:09:01;;;;;;;6.25;4.40;;;;;;;;;;5061694;28;41359;-23
2023/06/13 02:11:29;;;;;;;4.68;3.90;;;;;;;;;;5065480;28;44656;-24
2023/06/13 02:13:57;;;;;;;5.25;4.70;;;;;;;;;;5034769;28;39208;-23
2023/06/13 02:16:30;;;;;;;6.88;4.22;;;;;;;;;;5050002;28;42730;-23
2023/06/13 02:19:00;;;;;;;5.18;4.03;;;;;;;;;;5052864;28;44537;-23
2023/06/13 02:21:28;;;;;;;4.95;4.45;;;;;;;;;;5036423;28;39149;-23
2023/06/13 02:23:58;;;;;;;7.45;4.65;;;;;;;;;;5051987;28;43100;-25
2023/06/13 02:26:28;;;;;;;6.70;5.05;;;;;;;;;;5057489;28;44476;-22
2023/06/13 02:28:57;;;;;;;6.07;4.97;;;;;;;;;;5049565;28;40935;-22
2023/06/13 02:31:26;;;;;;;5.43;4.60;;;;;;;;;;5034634;28;42182;-23
2023/06/13 02:33:55;;;;;;;5.00;4.50;;;;;;;;;;5053595;28;40237;-22
2023/06/13 02:36:25;;;;;;;4.93;4.50;;;;;;;;;;5057372;28;42808;-22
2023/06/13 02:38:53;;;;;;;5.22;4.65;;;;;;;;;;5056848;28;43632;-22
2023/06/13 02:41:20;;;;;;;4.88;4.30;;;;;;;;;;5056108;28;40271;-23
2023/06/13 02:43:48;;;;;;;4.63;4.20;;;;;;;;;;5058536;28;42823;-22
2023/06/13 02:46:16;;;;;;;4.97;4.47;;;;;;;;;;5061479;28;43346;-22
2023/06/13 02:48:44;;;;;;;5.22;4.72;;;;;;;;;;5042624;28;39589;-23
2023/06/13 02:51:12;;;;;;;5.07;4.68;;;;;;;;;;5044387;28;41438;-22
2023/06/13 02:53:42;;;;;;;4.80;4.40;;;;;;;;;;5045912;28;41930;-22
2023/06/13 02:56:10;;;;;;;5.90;4.38;;;;;;;;;;5047761;28;42291;-22
2023/06/13 02:58:38;;;;;;;7.35;4.25;;;;;;;;;;5043746;28;42091;-23
2023/06/13 03:01:06;;;;;;;5.85;5.00;;;;;;;;;;5045994;28;39221;-22
2023/06/13 03:03:34;;;;;;;4.68;4.28;;;;;;;;;;5047131;28;41448;-23
2023/06/13 03:06:04;;;;;;;4.95;4.45;;;;;;;;;;5029901;28;42320;-22
2023/06/13 03:08:37;;;;;;;5.60;4.93;;;;;;;;;;5031915;28;39304;-22
2023/06/13 03:11:07;;;;;;;6.70;4.75;;;;;;;;;;5031370;28;41839;-26
2023/06/13 03:13:35;;;;;;;4.88;4.47;;;;;;;;;;5036454;28;42887;-22
2023/06/13 03:16:04;;;;;;;7.10;5.13;;;;;;;;;;5052968;28;39747;-22
2023/06/13 03:18:32;;;;;;;5.30;4.65;;;;;;;;;;5057994;28;44383;-27
2023/06/13 03:21:00;;;;;;;5.15;4.65;;;;;;;;;;5040944;28;39021;-23
2023/06/13 03:23:32;;;;;;;5.97;4.10;;;;;;;;;;5046392;28;43272;-22
2023/06/13 03:26:03;;;;;;;8.18;4.47;;;;;;;;;;5040249;28;43397;-24
2023/06/13 03:28:32;;;;;;;5.78;4.72;;;;;;;;;;5029570;28;39145;-22
2023/06/13 03:31:01;;;;;;;6.15;4.50;;;;;;;;;;5031670;28;41365;-22
2023/06/13 03:33:33;;;;;;;7.80;4.93;;;;;;;;;;5037550;28;42304;-22
2023/06/13 03:36:02;;;;;;;6.40;4.90;;;;;;;;;;5034251;28;39307;-22
2023/06/13 03:38:30;;;;;;;5.13;4.63;;;;;;;;;;5032728;28;42302;-22
2023/06/13 03:40:59;;;;;;;7.40;4.75;;;;;;;;;;5036295;28;41457;-22
2023/06/13 03:43:27;;;;;;;5.38;4.80;;;;;;;;;;5037282;28;41332;-23
2023/06/13 03:45:57;;;;;;;5.25;4.75;;;;;;;;;;5034683;28;42827;-22
2023/06/13 03:48:25;;;;;;;4.97;4.50;;;;;;;;;;5058304;28;41289;-22
2023/06/13 03:50:53;;;;;;;5.40;4.90;;;;;;;;;;5063001;28;42390;-22
2023/06/13 03:53:21;;;;;;;5.65;4.70;;;;;;;;;;5043870;28;43267;-22
2023/06/13 03:55:49;;;;;;;5.10;4.60;;;;;;;;;;5053932;28;40363;-22
2023/06/13 03:58:20;;;;;;;5.30;4.55;;;;;;;;;;5033200;28;42235;-22
2023/06/13 04:00:48;;;;;;;6.63;4.93;;;;;;;;;;5049948;28;40523;-22
2023/06/13 04:03:17;;;;;;;4.43;4.03;;;;;;;;;;5052364;28;42293;-22
2023/06/13 04:05:45;;;;;;;5.28;4.55;;;;;;;;;;5034243;28;41837;-22
2023/06/13 04:08:13;;;;;;;5.45;4.70;;;;;;;;;;5048832;28;41253;-22
2023/06/13 04:10:41;;;;;;;5.63;5.13;;;;;;;;;;5050882;28;43603;-23
2023/06/13 04:13:09;;;;;;;4.78;4.38;;;;;;;;;;5049641;28;44152;-22
2023/06/13 04:15:37;;;;;;;5.30;4.80;;;;;;;;;;5053518;28;40588;-24
2023/06/13 04:18:05;;;;;;;5.47;4.85;;;;;;;;;;5033837;28;41837;-23
2023/06/13 04:20:36;;;;;;;5.40;4.90;;;;;;;;;;5035971;28;42993;-22
2023/06/13 04:23:04;;;;;;;7.47;4.47;;;;;;;;;;5057192;28;43306;-22
2023/06/13 04:25:33;;;;;;;6.60;4.70;;;;;;;;;;5054941;28;44986;-23
2023/06/13 04:28:01;;;;;;;5.47;4.68;;;;;;;;;;5042669;28;39987;-22
2023/06/13 04:30:30;;;;;;;5.88;4.70;;;;;;;;;;5037716;28;41811;-22
2023/06/13 04:32:58;;;;;;;5.70;5.20;;;;;;;;;;5049101;28;43400;-22
2023/06/13 04:35:27;;;;;;;5.47;4.97;;;;;;;;;;5048510;28;40822;-22
2023/06/13 04:37:56;;;;;;;5.63;4.85;;;;;;;;;;5054423;28;43540;-22
2023/06/13 04:40:31;;;;;;;7.20;4.78;;;;;;;;;;5053187;28;44639;-22
2023/06/13 04:43:03;;;;;;;5.68;5.07;;;;;;;;;;5054935;28;40077;-22
2023/06/13 04:45:33;;;;;;;5.75;5.20;;;;;;;;;;5047875;28;43914;-22
2023/06/13 04:48:03;;;;;;;4.97;4.47;;;;;;;;;;5056859;28;39670;-22
2023/06/13 04:50:33;;;;;;;4.90;4.40;;;;;;;;;;5051836;28;42180;-23
2023/06/13 04:53:02;;;;;;;5.40;4.82;;;;;;;;;;5054356;28;43384;-22
2023/06/13 04:55:32;;;;;;;6.50;4.40;;;;;;;;;;5054962;28;42208;-22
2023/06/13 04:58:00;;;;;;;5.60;5.07;;;;;;;;;;5045634;28;42159;-24
2023/06/13 05:00:29;;;;;;;5.55;5.05;;;;;;;;;;5048059;28;43992;-23
2023/06/13 05:03:00;;;;;;;5.78;5.28;;;;;;;;;;5044130;28;41505;-23
2023/06/13 05:05:28;;;;;;;4.88;4.47;;;;;;;;;;5056512;28;43584;-22
2023/06/13 05:07:59;;;;;;;5.10;4.60;;;;;;;;;;5061977;28;39100;-22
2023/06/13 05:10:28;;;;;;;5.07;4.45;;;;;;;;;;5054467;28;42208;-22
2023/06/13 05:12:57;;;;;;;5.10;4.60;;;;;;;;;;5064063;28;43544;-24
2023/06/13 05:15:25;;;;;;;5.47;4.93;;;;;;;;;;5051163;28;41553;-22
2023/06/13 05:17:54;;;;;;;5.38;4.85;;;;;;;;;;5051205;28;42717;-23
2023/06/13 05:20:30;;;;;;;5.03;4.63;;;;;;;;;;5050483;28;42750;-22
2023/06/13 05:23:00;;;;;;;7.53;4.82;;;;;;;;;;5044081;28;41289;-22
2023/06/13 05:25:30;;;;;;;5.78;4.88;;;;;;;;;;5063403;28;42287;-23
2023/06/13 05:27:58;;;;;;;6.38;4.70;;;;;;;;;;5048187;28;45150;-23
2023/06/13 05:30:26;;;;;;;6.38;5.22;;;;;;;;;;5048139;28;43007;-23
2023/06/13 05:32:54;;;;;;;5.45;4.95;;;;;;;;;;5053681;28;43260;-22
2023/06/13 05:35:22;;;;;;;6.45;4.72;;;;;;;;;;5049380;28;41097;-23
2023/06/13 05:37:50;;;;;;;5.65;5.07;;;;;;;;;;5058487;28;42816;-23
2023/06/13 05:40:18;;;;;;;5.97;5.07;;;;;;;;;;5052792;28;43464;-23
2023/06/13 05:42:47;;;;;;;5.53;4.65;;;;;;;;;;5059375;28;41469;-23
2023/06/13 05:45:15;;;;;;;8.55;4.93;;;;;;;;;;5059250;28;42508;-23
2023/06/13 05:47:43;;;;;;;5.75;5.25;;;;;;;;;;5066266;28;43214;-23
2023/06/13 05:50:11;;;;;;;6.45;5.65;;;;;;;;;;5063882;28;42702;-22
2023/06/13 05:52:40;;;;;;;6.88;5.03;;;;;;;;;;5068314;28;43509;-23
2023/06/13 05:55:08;;;;;;;7.63;5.47;;;;;;;;;;5060903;28;40795;-22
2023/06/13 05:57:39;;;;;;;5.50;5.00;;;;;;;;;;5067152;28;42615;-22
2023/06/13 06:00:11;;;;;;;6.50;5.38;;;;;;;;;;5063467;28;44405;-22
2023/06/13 06:02:42;;;;;;;5.38;4.88;;;;;;;;;;5054375;28;40514;-22
2023/06/13 06:05:11;;;;;;;6.70;5.22;;;;;;;;;;5055211;28;42552;-22
2023/06/13 06:07:39;;;;;;;7.30;5.80;;;;;;;;;;5048926;28;43497;-22
2023/06/13 06:10:07;;;;;;;8.23;5.55;;;;;;;;;;5054327;28;41854;-25
2023/06/13 06:12:35;;;;;;;5.93;4.85;;;;;;;;;;5052078;28;43207;-22
2023/06/13 06:15:03;;;;;;;6.47;5.18;;;;;;;;;;5057328;28;40974;-23
2023/06/13 06:17:33;;;;;;;6.13;5.38;;;;;;;;;;5056516;28;42594;-22
2023/06/13 06:20:01;;;;;;;6.05;5.45;;;;;;;;;;5064081;28;42988;-22
2023/06/13 06:22:30;;;;;;;6.40;5.40;;;;;;;;;;5059264;28;41339;-23
2023/06/13 06:24:58;;;;;;;9.18;5.43;;;;;;;;;;5059481;28;42318;-22
2023/06/13 06:27:26;;;;;;;6.38;5.43;;;;;;;;;;5055605;28;44463;-23
2023/06/13 06:29:53;;;;;;;6.13;5.15;;;;;;;;;;5061642;28;40411;-23
2023/06/13 06:32:21;;;;;;;6.60;6.00;;;;;;;;;;5047784;28;43344;-23
2023/06/13 06:34:51;;;;;;;8.13;5.53;;;;;;;;;;5032100;28;41351;-22
2023/06/13 06:37:19;;;;;;;6.28;5.65;;;;;;;;;;5050518;28;42608;-23
2023/06/13 06:39:47;;;;;;;7.07;5.13;;;;;;;;;;5052770;28;44147;-23
2023/06/13 06:42:15;;;;;;;7.20;5.78;;;;;;;;;;5052617;28;41197;-22
2023/06/13 06:44:56;;;;;;;5.63;5.13;;;;;;;;;;5040725;28;41262;-23
2023/06/13 06:47:24;;;;;;;10.45;5.60;;;;;;;;;;5052906;28;44111;-22
2023/06/13 06:49:54;;;;;;;6.80;6.10;;;;;;;;;;5060033;28;40359;-24
2023/06/13 06:52:22;;;;;;;6.07;4.95;;;;;;;;;;5038655;28;40992;-23
2023/06/13 06:54:50;;;;;;;10.85;6.03;;;;;;;;;;5061148;28;43519;-23
2023/06/13 06:57:18;;;;;;;7.95;5.50;;;;;;;;;;5054508;28;43306;-23
2023/06/13 06:59:50;;;;;;;7.82;5.95;;;;;;;;;;5061796;28;44042;-22
2023/06/13 07:02:18;;;;;;;7.03;5.88;;;;;;;;;;5060188;28;39789;-23
2023/06/13 07:04:46;;;;;;;7.28;6.18;;;;;;;;;;5064516;28;43675;-26
2023/06/13 07:07:15;;;;;;;6.00;5.38;;;;;;;;;;5054053;28;43547;-23
2023/06/13 07:09:43;;;;;;;6.72;5.57;;;;;;;;;;5047047;28;39822;-23
2023/06/13 07:12:11;;;;;;;7.13;5.70;;;;;;;;;;5046040;28;42673;-23
2023/06/13 07:14:39;;;;;;;5.78;5.22;;;;;;;;;;5046734;28;42810;-23
2023/06/13 07:17:07;;;;;;;8.57;5.75;;;;;;;;;;5046628;28;41163;-23
2023/06/13 07:19:35;;;;;;;7.22;5.20;;;;;;;;;;5046170;28;43274;-23
2023/06/13 07:22:03;;;;;;;6.82;5.10;;;;;;;;;;5053418;28;39548;-23
2023/06/13 07:24:34;;;;;;;6.07;5.47;;;;;;;;;;5048089;28;42248;-23
2023/06/13 07:27:03;;;;;;;6.03;5.43;;;;;;;;;;5050362;28;42965;-23
2023/06/13 07:29:31;;;;;;;5.95;5.35;;;;;;;;;;5046067;28;41367;-22
2023/06/13 07:31:59;;;;;;;6.78;6.07;;;;;;;;;;5050752;28;43411;-25
2023/06/13 07:34:27;;;;;;;5.85;5.25;;;;;;;;;;5062801;28;42990;-23
2023/06/13 07:37:15;;;;;;;10.93;5.47;;;;;;;;;;5025585;28;40622;-23
2023/06/13 07:39:44;;;;;;;5.97;5.47;;;;;;;;;;5054960;28;42712;-23
2023/06/13 07:42:12;;;;;;;5.65;5.13;;;;;;;;;;5059728;28;41653;-23
2023/06/13 07:44:41;;;;;;;6.15;5.55;;;;;;;;;;5056067;28;42833;-22
2023/06/13 07:47:09;;;;;;;5.72;5.22;;;;;;;;;;5044455;28;42803;-23
2023/06/13 07:49:37;;;;;;;5.65;5.05;;;;;;;;;;5058763;28;41410;-23
2023/06/13 07:52:06;;;;;;;7.10;5.55;;;;;;;;;;5043752;28;42527;-23
2023/06/13 07:54:33;;;;;;;7.05;5.10;;;;;;;;;;5043291;28;44227;-23
2023/06/13 07:57:03;;;;;;;5.80;4.93;;;;;;;;;;5051303;28;41310;-23
2023/06/13 07:59:51;;;;;;;5.32;4.82;;;;;;;;;;5053751;28;42202;-24
2023/06/13 08:02:19;;;;;;;6.80;5.53;;;;;;;;;;5052144;28;39991;-23
2023/06/13 08:04:47;;;;;;;5.95;5.45;;;;;;;;;;5044993;28;43426;-23
2023/06/13 08:07:22;;;;;;;7.57;5.20;;;;;;;;;;5031534;28;43029;-23
2023/06/13 08:09:50;;;;;;;5.40;4.90;;;;;;;;;;5051179;28;40293;-23
2023/06/13 08:12:20;;;;;;;7.25;5.30;;;;;;;;;;5047549;28;42653;-23
2023/06/13 08:14:48;;;;;;;5.78;5.18;;;;;;;;;;5058825;28;43433;-23
2023/06/13 08:17:16;;;;;;;6.40;5.20;;;;;;;;;;5055204;28;40706;-23
2023/06/13 08:19:48;;;;;;;6.03;5.40;;;;;;;;;;5027207;28;41599;-23
2023/06/13 08:22:16;;;;;;;8.25;5.65;;;;;;;;;;5047468;28;43373;-23
2023/06/13 08:24:45;;;;;;;11.52;4.90;;;;;;;;;;5049217;28;43141;-24
2023/06/13 08:27:14;;;;;;;18.20;5.13;;;;;;;;;;5055069;28;43343;-23
2023/06/13 08:29:44;;;;;;;20.10;5.38;;;;;;;;;;5064332;28;41301;-23
2023/06/13 08:32:11;;;;;;;15.38;5.88;;;;;;;;;;5054615;28;43528;-23
2023/06/13 08:34:40;;;;;;;27.65;6.30;;;;;;;;;;5059088;28;44372;-22
2023/06/13 08:37:08;;;;;;;20.98;6.00;;;;;;;;;;5064908;28;41094;-23
2023/06/13 08:39:36;;;;;;;24.58;4.88;;;;;;;;;;5064762;28;43597;-23
2023/06/13 08:42:06;;;;;;;33.75;6.07;;;;;;;;;;5046702;28;44484;-23
2023/06/13 08:44:34;;;;;;;26.95;5.97;;;;;;;;;;5052400;28;40957;-23
2023/06/13 08:47:04;;;;;;;27.35;5.55;;;;;;;;;;5050433;28;43366;-22
2023/06/13 08:49:32;;;;;;;34.95;6.38;;;;;;;;;;5063891;28;40681;-25
2023/06/13 08:52:00;;;;;;;38.88;6.57;;;;;;;;;;5053169;28;44294;-24
2023/06/13 08:54:27;;;;;;;47.00;6.88;;;;;;;;;;5064876;28;44349;-23
2023/06/13 08:56:55;;;;;;;49.95;6.18;;;;;;;;;;5060286;28;41088;-23
2023/06/13 08:59:27;;;;;;;37.20;7.13;;;;;;;;;;5061515;28;42904;-23
2023/06/13 09:01:55;;;;;;;55.28;7.00;;;;;;;;;;5060371;28;44074;-23
2023/06/13 09:04:27;;;;;;;81.18;8.55;;;;;;;;;;5060802;28;42125;-27
2023/06/13 09:06:55;;;;;;;52.05;7.63;;;;;;;;;;5054975;28;43217;-25
2023/06/13 09:09:23;;;;;;;58.53;6.57;;;;;;;;;;5044117;28;40936;-23
2023/06/13 09:11:51;;;;;;;50.50;7.60;;;;;;;;;;5048080;28;43210;-23
2023/06/13 09:14:19;;;;;;;46.63;7.28;;;;;;;;;;5044654;28;44585;-23
2023/06/13 09:16:48;;;;;;;38.67;6.78;;;;;;;;;;5043740;28;41704;-23
2023/06/13 09:19:16;;;;;;;26.85;6.15;;;;;;;;;;5045896;28;42808;-22
2023/06/13 09:21:46;;;;;;;30.73;6.43;;;;;;;;;;5050626;28;43384;-23
2023/06/13 09:24:14;;;;;;;32.70;5.88;;;;;;;;;;5065451;28;41050;-24
2023/06/13 09:26:42;;;;;;;33.78;6.45;;;;;;;;;;5064053;28;43738;-24
2023/06/13 09:29:10;;;;;;;50.97;6.18;;;;;;;;;;5061349;28;44283;-23
2023/06/13 09:31:58;;;;;;;36.97;6.18;;;;;;;;;;5054992;28;42601;-24
2023/06/13 09:34:26;;;;;;;49.97;7.18;;;;;;;;;;5054003;28;44514;-23
2023/06/13 09:36:56;;;;;;;45.08;6.70;;;;;;;;;;5067795;28;40378;-24
2023/06/13 09:39:24;;;;;;;92.40;8.43;;;;;;;;;;5067259;28;43658;-23
2023/06/13 09:41:55;;;;;;;64.90;7.50;;;;;;;;;;5068344;28;43463;-24
2023/06/13 09:44:24;;;;;;;53.90;7.57;;;;;;;;;;5067083;28;40579;-23
2023/06/13 09:46:51;;;;;;;59.67;7.05;;;;;;;;;;5063353;28;43610;-22
2023/06/13 09:49:20;;;;;;;39.20;6.28;;;;;;;;;;5055294;28;43584;-23
2023/06/13 09:51:47;;;;;;;32.80;6.05;;;;;;;;;;5064982;28;40281;-23
2023/06/13 09:54:17;;;;;;;41.90;6.13;;;;;;;;;;5067220;28;44374;-24
2023/06/13 09:56:45;;;;;;;34.72;6.40;;;;;;;;;;5067751;28;41406;-23
2023/06/13 09:59:15;;;;;;;29.58;6.60;;;;;;;;;;5067694;28;43288;-25
2023/06/13 10:01:43;;;;;;;16.55;4.85;;;;;;;;;;5067478;28;43902;-28
2023/06/13 10:04:12;;;;;;;14.27;4.95;;;;;;;;;;5065752;28;40567;-25
2023/06/13 10:06:40;;;;;;;19.33;5.65;;;;;;;;;;5067135;28;43364;-23
2023/06/13 10:09:07;;;;;;;20.90;5.38;;;;;;;;;;5067916;28;43927;-23
2023/06/13 10:11:37;;;;;;;11.40;5.47;;;;;;;;;;5067561;28;40275;-23
2023/06/13 10:14:06;;;;;;;20.33;5.72;;;;;;;;;;5065207;28;42936;-24
2023/06/13 10:16:35;;;;;;;14.15;5.63;;;;;;;;;;5057218;28;40401;-23
2023/06/13 10:19:03;;;;;;;12.02;5.38;;;;;;;;;;5063009;28;42723;-25
2023/06/13 10:21:30;;;;;;;15.32;5.40;;;;;;;;;;5063403;28;43721;-23
2023/06/13 10:24:17;;;;;;;16.73;5.63;;;;;;;;;;5049421;28;40175;-23
2023/06/13 10:26:47;;;;;;;20.10;5.82;;;;;;;;;;5058396;28;43579;-22
2023/06/13 10:29:30;;;;;;;15.75;5.93;;;;;;;;;;5061243;28;43255;-25
2023/06/13 10:32:02;;;;;;;11.20;5.65;;;;;;;;;;5062008;28;41416;-23
2023/06/13 10:34:42;;;;;;;13.52;5.30;;;;;;;;;;5062367;28;42476;-23
2023/06/13 10:37:21;;;;;;;10.73;6.05;;;;;;;;;;5043262;28;40927;-24
2023/06/13 10:39:54;;;;;;;10.75;5.15;;;;;;;;;;5044836;28;42618;-23
2023/06/13 10:42:27;;;;;;;5.90;4.90;;;;;;;;;;5058031;28;43194;-23
2023/06/13 10:44:56;;;;;;;9.30;5.93;;;;;;;;;;5053936;28;41865;-23
2023/06/13 10:47:25;;;;;;;7.55;4.75;;;;;;;;;;5050573;28;43046;-23
2023/06/13 10:49:53;;;;;;;6.15;4.53;;;;;;;;;;5052483;28;43504;-23
2023/06/13 10:52:21;;;;;;;9.70;5.57;;;;;;;;;;5050799;28;40362;-23
2023/06/13 10:54:49;;;;;;;10.05;4.90;;;;;;;;;;5049281;28;43214;-23
2023/06/13 10:57:18;;;;;;;9.35;5.70;;;;;;;;;;5056639;28;43494;-23
2023/06/13 10:59:47;;;;;;;8.95;5.70;;;;;;;;;;5053621;28;42608;-23
2023/06/13 11:02:16;;;;;;;6.43;5.18;;;;;;;;;;5044271;28;44513;-22
2023/06/13 11:04:51;;;;;;;8.15;4.72;;;;;;;;;;5028427;28;40484;-23
2023/06/13 11:07:25;;;;;;;5.95;5.25;;;;;;;;;;5048400;28;42254;-23
2023/06/13 11:10:03;;;;;;;8.80;5.15;;;;;;;;;;5052172;28;43161;-24
2023/06/13 11:12:31;;;;;;;6.32;5.28;;;;;;;;;;5007612;28;1058533;-23
2023/06/13 11:15:01;;;;;;;9.43;5.30;;;;;;;;;;5056696;28;42887;-25
2023/06/13 11:17:29;;;;;;;9.90;5.53;;;;;;;;;;5047752;28;43392;-23
2023/06/13 11:19:57;;;;;;;8.30;5.35;;;;;;;;;;5046991;28;40477;-23
2023/06/13 11:22:25;;;;;;;5.95;5.00;;;;;;;;;;5045826;28;43584;-23
2023/06/13 11:24:53;;;;;;;10.50;5.28;;;;;;;;;;5050088;28;41029;-23
2023/06/13 11:27:21;;;;;;;7.65;5.82;;;;;;;;;;5055584;28;43292;-25
2023/06/13 11:29:51;;;;;;;8.07;5.40;;;;;;;;;;5064323;28;43548;-25
2023/06/13 11:32:20;;;;;;;5.40;4.88;;;;;;;;;;5056389;28;41021;-23
2023/06/13 11:34:50;;;;;;;6.18;5.57;;;;;;;;;;5064251;28;42505;-23
2023/06/13 11:37:21;;;;;;;7.25;5.50;;;;;;;;;;5063623;28;45025;-23
2023/06/13 11:39:49;;;;;;;8.75;5.57;;;;;;;;;;5062033;28;39890;-23
2023/06/13 11:42:24;;;;;;;7.43;6.03;;;;;;;;;;5052988;28;42498;-23
2023/06/13 11:44:52;;;;;;;6.55;5.60;;;;;;;;;;5059455;28;41309;-31
2023/06/13 11:47:21;;;;;;;10.10;5.80;;;;;;;;;;5065934;28;43624;-23
2023/06/13 11:49:56;;;;;;;7.18;6.47;;;;;;;;;;5064066;28;43630;-23
2023/06/13 11:52:24;;;;;;;9.25;6.22;;;;;;;;;;5044477;28;40668;-23
2023/06/13 11:54:54;;;;;;;6.78;6.07;;;;;;;;;;5055509;28;42527;-23
2023/06/13 11:57:23;;;;;;;7.05;6.38;;;;;;;;;;5051477;28;44084;-24
2023/06/13 11:59:56;;;;;;;7.25;5.97;;;;;;;;;;5045935;28;41920;-23
2023/06/13 12:02:27;;;;;;;7.45;6.65;;;;;;;;;;5050508;28;42563;-23
2023/06/13 12:04:55;;;;;;;7.28;6.53;;;;;;;;;;5043739;28;32897;-23
2023/06/13 12:07:23;;;;;;;7.57;6.80;;;;;;;;;;5048755;28;42068;-23
2023/06/13 12:09:51;;;;;;;9.10;7.53;;;;;;;;;;5056433;28;43952;-24
2023/06/13 12:12:19;;;;;;;6.88;6.28;;;;;;;;;;5046891;28;40857;-23
2023/06/13 12:14:52;;;;;;;7.47;6.85;;;;;;;;;;5047690;28;43136;-23
2023/06/13 12:17:21;;;;;;;7.53;6.78;;;;;;;;;;5043764;28;43630;-23
2023/06/13 12:19:51;;;;;;;8.65;6.93;;;;;;;;;;5054685;28;41145;-23
2023/06/13 12:22:19;;;;;;;7.72;6.75;;;;;;;;;;5055644;28;43131;-23
2023/06/13 12:24:47;;;;;;;6.78;6.13;;;;;;;;;;5063113;28;43532;-23
2023/06/13 12:27:15;;;;;;;9.32;6.90;;;;;;;;;;5063532;28;42093;-24
2023/06/13 12:29:44;;;;;;;7.55;6.60;;;;;;;;;;5063891;28;43456;-26
2023/06/13 12:32:13;;;;;;;8.25;6.75;;;;;;;;;;5053136;28;40516;-23
2023/06/13 12:34:43;;;;;;;8.60;7.40;;;;;;;;;;5048727;28;43423;-23
2023/06/13 12:37:13;;;;;;;8.20;6.45;;;;;;;;;;5053188;28;42979;-23
2023/06/13 12:39:57;;;;;;;7.75;7.05;;;;;;;;;;5054842;28;41294;-23
2023/06/13 12:42:25;;;;;;;8.43;6.40;;;;;;;;;;5047237;28;43484;-23
2023/06/13 12:44:56;;;;;;;7.18;6.50;;;;;;;;;;5045559;28;43008;-23
2023/06/13 12:47:25;;;;;;;8.40;6.75;;;;;;;;;;5055053;28;41291;-23
2023/06/13 12:49:53;;;;;;;7.32;6.63;;;;;;;;;;5046131;28;43437;-23
2023/06/13 12:52:22;;;;;;;7.78;6.60;;;;;;;;;;5054399;28;41242;-24
2023/06/13 12:54:50;;;;;;;9.48;6.60;;;;;;;;;;5059823;28;42202;-23
2023/06/13 12:57:19;;;;;;;8.23;6.45;;;;;;;;;;5054463;28;43877;-23
2023/06/13 12:59:52;;;;;;;6.93;6.25;;;;;;;;;;5045556;28;40221;-23
2023/06/13 13:02:21;;;;;;;9.00;6.75;;;;;;;;;;5041392;28;42723;-24
2023/06/13 13:04:49;;;;;;;6.53;5.80;;;;;;;;;;5045155;28;44529;-25
2023/06/13 13:07:17;;;;;;;8.75;6.18;;;;;;;;;;5045047;28;41366;-24
2023/06/13 13:09:47;;;;;;;7.00;6.30;;;;;;;;;;5047022;28;43220;-23
2023/06/13 13:12:15;;;;;;;7.95;7.15;;;;;;;;;;5052380;28;40648;-23
2023/06/13 13:14:43;;;;;;;8.73;6.30;;;;;;;;;;5034980;28;43438;-23
2023/06/13 13:17:11;;;;;;;8.23;6.40;;;;;;;;;;5031510;28;43521;-23
2023/06/13 13:19:39;;;;;;;7.43;6.50;;;;;;;;;;5024776;28;39937;-23
2023/06/13 13:22:07;;;;;;;8.07;5.78;;;;;;;;;;5025248;28;42728;-22
2023/06/13 13:24:36;;;;;;;7.00;6.22;;;;;;;;;;5026735;28;42875;-23
2023/06/13 13:27:06;;;;;;;7.15;6.45;;;;;;;;;;5042247;28;41271;-24
2023/06/13 13:29:34;;;;;;;7.03;6.32;;;;;;;;;;5030723;28;42612;-25
2023/06/13 13:32:02;;;;;;;6.80;6.20;;;;;;;;;;5025062;28;43254;-24
2023/06/13 13:34:33;;;;;;;6.15;5.55;;;;;;;;;;5025141;28;42690;-23
2023/06/13 13:37:01;;;;;;;7.32;6.20;;;;;;;;;;5023138;28;44145;-23
2023/06/13 13:39:29;;;;;;;11.80;6.30;;;;;;;;;;5024840;28;41773;-23
2023/06/13 13:41:56;;;;;;;6.75;6.13;;;;;;;;;;5036495;28;42618;-23
2023/06/13 13:44:28;;;;;;;6.95;5.80;;;;;;;;;;5032043;28;43084;-23
2023/06/13 13:46:56;;;;;;;6.18;5.65;;;;;;;;;;5024657;28;41280;-23
2023/06/13 13:49:27;;;;;;;6.32;5.72;;;;;;;;;;5025087;28;43296;-23
2023/06/13 13:51:55;;;;;;;8.13;6.03;;;;;;;;;;5006219;28;42749;-23
2023/06/13 13:54:23;;;;;;;6.60;6.00;;;;;;;;;;5023894;28;40905;-23
2023/06/13 13:56:51;;;;;;;7.15;5.75;;;;;;;;;;5025154;28;43260;-23
2023/06/13 13:59:19;;;;;;;6.40;5.80;;;;;;;;;;5023624;28;40366;-23
2023/06/13 14:01:48;;;;;;;6.55;5.95;;;;;;;;;;5024810;28;42765;-23
2023/06/13 14:04:18;;;;;;;6.80;6.20;;;;;;;;;;5005538;28;42188;-23
2023/06/13 14:06:46;;;;;;;6.60;5.28;;;;;;;;;;5026284;28;40233;-23
2023/06/13 14:09:16;;;;;;;6.97;6.28;;;;;;;;;;5027474;28;42666;-23
2023/06/13 14:11:44;;;;;;;7.90;5.63;;;;;;;;;;5028368;28;44547;-23
2023/06/13 14:14:12;;;;;;;6.90;5.28;;;;;;;;;;5043131;28;43162;-23
2023/06/13 14:16:40;;;;;;;6.78;6.07;;;;;;;;;;5029182;28;45069;-23
2023/06/13 14:19:09;;;;;;;6.40;5.65;;;;;;;;;;5048713;28;41440;-23
2023/06/13 14:21:37;;;;;;;9.65;6.15;;;;;;;;;;5047144;28;42261;-26
2023/06/13 14:24:05;;;;;;;6.68;5.80;;;;;;;;;;5029204;28;42329;-24
2023/06/13 14:26:33;;;;;;;7.43;5.93;;;;;;;;;;5058525;28;40326;-23
2023/06/13 14:29:01;;;;;;;8.02;5.75;;;;;;;;;;5057086;28;43531;-23
2023/06/13 14:31:29;;;;;;;8.13;6.05;;;;;;;;;;5063383;28;43376;-24
2023/06/13 14:33:57;;;;;;;6.38;5.72;;;;;;;;;;5046991;28;41692;-24
2023/06/13 14:36:26;;;;;;;7.93;6.10;;;;;;;;;;5047751;28;42397;-23
2023/06/13 14:38:54;;;;;;;5.93;5.25;;;;;;;;;;5047977;28;40220;-23
2023/06/13 14:41:22;;;;;;;5.63;5.13;;;;;;;;;;5048866;28;42348;-23
2023/06/13 14:43:50;;;;;;;6.47;5.65;;;;;;;;;;5047140;28;43428;-23
2023/06/13 14:46:18;;;;;;;5.70;5.05;;;;;;;;;;5046643;28;39897;-23
2023/06/13 14:48:46;;;;;;;7.47;5.63;;;;;;;;;;5046874;28;42876;-24
2023/06/13 14:51:14;;;;;;;7.45;6.03;;;;;;;;;;5046018;28;43192;-24
2023/06/13 14:53:46;;;;;;;7.28;5.78;;;;;;;;;;5046804;28;40831;-23